sensor_id;sensor_type;location;lat;lon;timestamp;temperature;humidity
19968;DHT22;10145;49.152;9.282;2023-02-27T00:02:21;-1.90;99.90
19968;DHT22;10145;49.152;9.282;2023-02-27T00:04:47;-1.80;99.90
19968;DHT22;10145;49.152;9.282;2023-02-27T00:07:12;-1.80;99.90
19968;DHT22;10145;49.152;9.282;2023-02-27T00:09:38;-1.90;99.90
19968;DHT22;10145;49.152;9.282;2023-02-27T00:12:07;-1.80;99.90
19968;DHT22;10145;49.152;9.282;2023-02-27T00:14:33;-1.80;99.90
19968;DHT22;10145;49.152;9.282;2023-02-27T00:16:59;-1.80;99.90
19968;DHT22;10145;49.152;9.282;2023-02-27T00:19:24;-1.80;99.90
19968;DHT22;10145;49.152;9.282;2023-02-27T00:21:50;-1.90;99.90
19968;DHT22;10145;49.152;9.282;2023-02-27T00:24:16;-1.90;99.90
19968;DHT22;10145;49.152;9.282;2023-02-27T00:26:41;-1.90;99.90
19968;DHT22;10145;49.152;9.282;2023-02-27T00:29:07;-1.90;99.90
19968;DHT22;10145;49.152;9.282;2023-02-27T00:31:32;-1.90;99.90
19968;DHT22;10145;49.152;9.282;2023-02-27T00:33:59;-1.90;99.90
19968;DHT22;10145;49.152;9.282;2023-02-27T00:36:24;-1.90;99.90
19968;DHT22;10145;49.152;9.282;2023-02-27T00:38:50;-1.90;99.90
19968;DHT22;10145;49.152;9.282;2023-02-27T00:41:15;-1.90;99.90
19968;DHT22;10145;49.152;9.282;2023-02-27T00:43:41;-1.70;99.90
19968;DHT22;10145;49.152;9.282;2023-02-27T00:46:06;-1.80;99.90
19968;DHT22;10145;49.152;9.282;2023-02-27T00:48:32;-1.80;99.90
19968;DHT22;10145;49.152;9.282;2023-02-27T00:50:57;-1.80;99.90
19968;DHT22;10145;49.152;9.282;2023-02-27T00:53:23;-1.70;99.90
19968;DHT22;10145;49.152;9.282;2023-02-27T00:55:49;-1.70;99.90
19968;DHT22;10145;49.152;9.282;2023-02-27T00:58:15;-1.80;99.90
19968;DHT22;10145;49.152;9.282;2023-02-27T01:00:41;-1.70;99.90
19968;DHT22;10145;49.152;9.282;2023-02-27T01:03:06;-1.80;99.90
19968;DHT22;10145;49.152;9.282;2023-02-27T01:05:32;-1.80;99.90
19968;DHT22;10145;49.152;9.282;2023-02-27T01:07:57;-1.80;99.90
19968;DHT22;10145;49.152;9.282;2023-02-27T01:10:23;-1.90;99.90
19968;DHT22;10145;49.152;9.282;2023-02-27T01:12:49;-1.80;99.90
19968;DHT22;10145;49.152;9.282;2023-02-27T01:15:14;-1.90;99.90
19968;DHT22;10145;49.152;9.282;2023-02-27T01:17:40;-1.90;99.90
19968;DHT22;10145;49.152;9.282;2023-02-27T01:20:07;-2.00;99.90
19968;DHT22;10145;49.152;9.282;2023-02-27T01:22:33;-2.00;99.90
19968;DHT22;10145;49.152;9.282;2023-02-27T01:24:59;-2.00;99.90
19968;DHT22;10145;49.152;9.282;2023-02-27T01:27:25;-1.90;99.90
19968;DHT22;10145;49.152;9.282;2023-02-27T01:29:51;-1.90;99.90
19968;DHT22;10145;49.152;9.282;2023-02-27T01:32:16;-1.90;99.90
19968;DHT22;10145;49.152;9.282;2023-02-27T01:34:42;-2.00;99.90
19968;DHT22;10145;49.152;9.282;2023-02-27T01:37:07;-2.00;99.90
19968;DHT22;10145;49.152;9.282;2023-02-27T01:39:33;-2.00;99.90
19968;DHT22;10145;49.152;9.282;2023-02-27T01:41:59;-2.00;99.90
19968;DHT22;10145;49.152;9.282;2023-02-27T01:44:27;-2.00;99.90
19968;DHT22;10145;49.152;9.282;2023-02-27T01:46:54;-2.10;99.90
19968;DHT22;10145;49.152;9.282;2023-02-27T01:49:20;-2.20;99.90
19968;DHT22;10145;49.152;9.282;2023-02-27T01:51:55;-2.20;99.90
19968;DHT22;10145;49.152;9.282;2023-02-27T01:54:26;-2.10;99.90
19968;DHT22;10145;49.152;9.282;2023-02-27T01:56:52;-2.10;99.90
19968;DHT22;10145;49.152;9.282;2023-02-27T01:59:18;-2.10;99.90
19968;DHT22;10145;49.152;9.282;2023-02-27T02:01:45;-2.20;99.90
19968;DHT22;10145;49.152;9.282;2023-02-27T02:04:25;-2.10;99.90
19968;DHT22;10145;49.152;9.282;2023-02-27T02:07:05;-2.10;99.90
19968;DHT22;10145;49.152;9.282;2023-02-27T02:09:36;-2.10;99.90
19968;DHT22;10145;49.152;9.282;2023-02-27T02:12:03;-2.10;99.90
19968;DHT22;10145;49.152;9.282;2023-02-27T02:14:29;-2.10;99.90
19968;DHT22;10145;49.152;9.282;2023-02-27T02:40:01;-2.60;99.90
19968;DHT22;10145;49.152;9.282;2023-02-27T02:45:27;-2.50;99.90
19968;DHT22;10145;49.152;9.282;2023-02-27T02:53:24;-2.60;99.90
19968;DHT22;10145;49.152;9.282;2023-02-27T03:01:30;-2.80;99.90
19968;DHT22;10145;49.152;9.282;2023-02-27T03:04:03;-2.70;99.90
19968;DHT22;10145;49.152;9.282;2023-02-27T03:06:33;-2.80;99.90
19968;DHT22;10145;49.152;9.282;2023-02-27T03:09:13;-2.90;99.90
19968;DHT22;10145;49.152;9.282;2023-02-27T03:11:44;-3.00;99.90
19968;DHT22;10145;49.152;9.282;2023-02-27T03:16:51;-2.90;99.90
19968;DHT22;10145;49.152;9.282;2023-02-27T03:19:21;-2.90;99.90
19968;DHT22;10145;49.152;9.282;2023-02-27T03:21:59;-2.90;99.90
19968;DHT22;10145;49.152;9.282;2023-02-27T03:24:32;-3.00;99.90
19968;DHT22;10145;49.152;9.282;2023-02-27T03:27:00;-3.10;99.90
19968;DHT22;10145;49.152;9.282;2023-02-27T03:29:51;-3.20;99.90
19968;DHT22;10145;49.152;9.282;2023-02-27T03:32:37;-3.20;99.90
19968;DHT22;10145;49.152;9.282;2023-02-27T03:35:08;-3.30;99.90
19968;DHT22;10145;49.152;9.282;2023-02-27T03:37:55;-3.30;99.90
19968;DHT22;10145;49.152;9.282;2023-02-27T03:40:30;-3.30;99.90
19968;DHT22;10145;49.152;9.282;2023-02-27T03:43:20;-3.40;99.90
19968;DHT22;10145;49.152;9.282;2023-02-27T03:46:09;-3.40;99.90
19968;DHT22;10145;49.152;9.282;2023-02-27T03:48:35;-3.40;99.90
19968;DHT22;10145;49.152;9.282;2023-02-27T03:51:01;-3.30;99.90
19968;DHT22;10145;49.152;9.282;2023-02-27T03:53:30;-3.30;99.90
19968;DHT22;10145;49.152;9.282;2023-02-27T03:55:58;-3.30;99.90
19968;DHT22;10145;49.152;9.282;2023-02-27T03:58:25;-3.30;99.90
19968;DHT22;10145;49.152;9.282;2023-02-27T04:00:51;-3.30;99.90
19968;DHT22;10145;49.152;9.282;2023-02-27T04:03:17;-3.30;99.90
19968;DHT22;10145;49.152;9.282;2023-02-27T04:05:42;-3.20;99.90
19968;DHT22;10145;49.152;9.282;2023-02-27T04:16:54;-3.10;99.90
19968;DHT22;10145;49.152;9.282;2023-02-27T04:19:46;-3.20;99.90
19968;DHT22;10145;49.152;9.282;2023-02-27T04:22:29;-3.30;99.90
19968;DHT22;10145;49.152;9.282;2023-02-27T04:25:05;-3.40;99.90
19968;DHT22;10145;49.152;9.282;2023-02-27T04:27:51;-3.50;99.90
19968;DHT22;10145;49.152;9.282;2023-02-27T04:38:36;-3.10;99.90
19968;DHT22;10145;49.152;9.282;2023-02-27T04:41:19;-3.10;99.90
19968;DHT22;10145;49.152;9.282;2023-02-27T04:43:46;-3.00;99.90
19968;DHT22;10145;49.152;9.282;2023-02-27T04:46:14;-3.10;99.90
19968;DHT22;10145;49.152;9.282;2023-02-27T04:51:17;-3.10;99.90
19968;DHT22;10145;49.152;9.282;2023-02-27T04:53:53;-3.20;99.90
19968;DHT22;10145;49.152;9.282;2023-02-27T04:56:30;-3.20;99.90
19968;DHT22;10145;49.152;9.282;2023-02-27T04:59:07;-3.30;99.90
19968;DHT22;10145;49.152;9.282;2023-02-27T05:01:38;-3.30;99.90
19968;DHT22;10145;49.152;9.282;2023-02-27T05:04:06;-3.40;99.90
19968;DHT22;10145;49.152;9.282;2023-02-27T05:06:35;-3.40;99.90
19968;DHT22;10145;49.152;9.282;2023-02-27T05:09:23;-3.40;99.90
19968;DHT22;10145;49.152;9.282;2023-02-27T05:11:55;-3.40;99.90
19968;DHT22;10145;49.152;9.282;2023-02-27T05:14:39;-3.40;99.90
19968;DHT22;10145;49.152;9.282;2023-02-27T05:17:09;-3.40;99.90
19968;DHT22;10145;49.152;9.282;2023-02-27T05:19:40;-3.50;99.90
19968;DHT22;10145;49.152;9.282;2023-02-27T05:22:23;-3.50;99.90
19968;DHT22;10145;49.152;9.282;2023-02-27T05:30:21;-3.70;99.90
19968;DHT22;10145;49.152;9.282;2023-02-27T05:36:17;-4.00;99.90
19968;DHT22;10145;49.152;9.282;2023-02-27T05:39:11;-4.00;99.90
19968;DHT22;10145;49.152;9.282;2023-02-27T05:41:43;-3.90;99.90
19968;DHT22;10145;49.152;9.282;2023-02-27T05:44:15;-3.90;99.90
19968;DHT22;10145;49.152;9.282;2023-02-27T05:46:46;-4.00;99.90
19968;DHT22;10145;49.152;9.282;2023-02-27T05:49:18;-3.90;99.90
19968;DHT22;10145;49.152;9.282;2023-02-27T05:51:48;-4.10;99.90
19968;DHT22;10145;49.152;9.282;2023-02-27T05:54:23;-4.00;99.90
19968;DHT22;10145;49.152;9.282;2023-02-27T05:56:53;-4.10;99.90
19968;DHT22;10145;49.152;9.282;2023-02-27T05:59:34;-4.10;99.90
19968;DHT22;10145;49.152;9.282;2023-02-27T06:02:03;-4.10;99.90
19968;DHT22;10145;49.152;9.282;2023-02-27T06:04:29;-4.10;99.90
19968;DHT22;10145;49.152;9.282;2023-02-27T06:06:56;-4.00;99.90
19968;DHT22;10145;49.152;9.282;2023-02-27T06:09:21;-4.10;99.90
19968;DHT22;10145;49.152;9.282;2023-02-27T06:11:47;-4.10;99.90
19968;DHT22;10145;49.152;9.282;2023-02-27T06:14:12;-4.10;99.90
19968;DHT22;10145;49.152;9.282;2023-02-27T06:16:38;-4.00;99.90
19968;DHT22;10145;49.152;9.282;2023-02-27T06:19:05;-4.00;99.90
19968;DHT22;10145;49.152;9.282;2023-02-27T06:21:31;-3.90;99.90
19968;DHT22;10145;49.152;9.282;2023-02-27T06:23:56;-3.90;99.90
19968;DHT22;10145;49.152;9.282;2023-02-27T06:26:22;-3.80;99.90
19968;DHT22;10145;49.152;9.282;2023-02-27T06:28:48;-3.70;99.90
19968;DHT22;10145;49.152;9.282;2023-02-27T06:31:13;-3.80;99.90
19968;DHT22;10145;49.152;9.282;2023-02-27T06:33:39;-3.60;99.90
19968;DHT22;10145;49.152;9.282;2023-02-27T06:36:05;-3.40;99.90
19968;DHT22;10145;49.152;9.282;2023-02-27T06:38:30;-3.40;99.90
19968;DHT22;10145;49.152;9.282;2023-02-27T06:40:56;-3.40;99.90
19968;DHT22;10145;49.152;9.282;2023-02-27T06:43:21;-3.20;99.90
19968;DHT22;10145;49.152;9.282;2023-02-27T06:45:48;-3.20;99.90
19968;DHT22;10145;49.152;9.282;2023-02-27T06:48:13;-3.20;99.90
19968;DHT22;10145;49.152;9.282;2023-02-27T06:50:39;-3.20;99.90
19968;DHT22;10145;49.152;9.282;2023-02-27T06:53:05;-3.20;99.90
19968;DHT22;10145;49.152;9.282;2023-02-27T06:55:31;-3.00;99.90
19968;DHT22;10145;49.152;9.282;2023-02-27T06:57:57;-2.90;99.90
19968;DHT22;10145;49.152;9.282;2023-02-27T07:00:22;-2.70;99.90
19968;DHT22;10145;49.152;9.282;2023-02-27T07:02:49;-2.60;99.90
19968;DHT22;10145;49.152;9.282;2023-02-27T07:05:15;-2.50;99.90
19968;DHT22;10145;49.152;9.282;2023-02-27T07:07:40;-2.30;99.90
19968;DHT22;10145;49.152;9.282;2023-02-27T07:10:09;-2.20;99.90
19968;DHT22;10145;49.152;9.282;2023-02-27T07:12:36;-2.20;99.90
19968;DHT22;10145;49.152;9.282;2023-02-27T07:15:02;-2.10;99.90
19968;DHT22;10145;49.152;9.282;2023-02-27T07:17:27;-2.00;99.90
19968;DHT22;10145;49.152;9.282;2023-02-27T07:19:53;-2.00;99.90
19968;DHT22;10145;49.152;9.282;2023-02-27T07:22:18;-1.90;99.90
19968;DHT22;10145;49.152;9.282;2023-02-27T07:24:44;-1.90;99.90
19968;DHT22;10145;49.152;9.282;2023-02-27T07:27:09;-1.80;99.90
19968;DHT22;10145;49.152;9.282;2023-02-27T07:29:35;-1.70;99.90
19968;DHT22;10145;49.152;9.282;2023-02-27T07:32:01;-1.60;99.90
19968;DHT22;10145;49.152;9.282;2023-02-27T07:34:27;-1.50;99.90
19968;DHT22;10145;49.152;9.282;2023-02-27T07:36:52;-1.50;99.90
19968;DHT22;10145;49.152;9.282;2023-02-27T07:39:17;-1.40;99.90
19968;DHT22;10145;49.152;9.282;2023-02-27T07:41:43;-1.40;99.90
19968;DHT22;10145;49.152;9.282;2023-02-27T07:44:10;-1.30;99.90
19968;DHT22;10145;49.152;9.282;2023-02-27T07:46:35;-1.20;99.90
19968;DHT22;10145;49.152;9.282;2023-02-27T07:49:01;-1.10;99.90
19968;DHT22;10145;49.152;9.282;2023-02-27T07:51:27;-1.10;99.90
19968;DHT22;10145;49.152;9.282;2023-02-27T07:53:52;-1.00;99.90
19968;DHT22;10145;49.152;9.282;2023-02-27T07:56:19;-1.00;99.90
19968;DHT22;10145;49.152;9.282;2023-02-27T07:58:45;-0.90;99.90
19968;DHT22;10145;49.152;9.282;2023-02-27T08:01:10;-0.80;99.90
19968;DHT22;10145;49.152;9.282;2023-02-27T08:03:36;-0.80;99.90
19968;DHT22;10145;49.152;9.282;2023-02-27T08:06:02;-0.70;99.90
19968;DHT22;10145;49.152;9.282;2023-02-27T08:08:27;-0.70;99.90
19968;DHT22;10145;49.152;9.282;2023-02-27T08:10:53;-0.60;99.90
19968;DHT22;10145;49.152;9.282;2023-02-27T08:13:20;-0.40;99.90
19968;DHT22;10145;49.152;9.282;2023-02-27T08:15:45;-0.40;99.90
19968;DHT22;10145;49.152;9.282;2023-02-27T08:18:11;-0.40;99.90
19968;DHT22;10145;49.152;9.282;2023-02-27T08:20:36;-0.30;99.90
19968;DHT22;10145;49.152;9.282;2023-02-27T08:23:02;-0.20;99.90
19968;DHT22;10145;49.152;9.282;2023-02-27T08:25:28;-0.10;99.90
19968;DHT22;10145;49.152;9.282;2023-02-27T08:27:54;0.00;99.90
19968;DHT22;10145;49.152;9.282;2023-02-27T08:30:20;0.00;99.90
19968;DHT22;10145;49.152;9.282;2023-02-27T08:32:45;0.10;99.90
19968;DHT22;10145;49.152;9.282;2023-02-27T08:35:12;0.20;99.90
19968;DHT22;10145;49.152;9.282;2023-02-27T08:37:37;0.20;99.90
19968;DHT22;10145;49.152;9.282;2023-02-27T08:40:04;0.30;99.90
19968;DHT22;10145;49.152;9.282;2023-02-27T08:42:32;0.40;99.90
19968;DHT22;10145;49.152;9.282;2023-02-27T08:44:57;0.50;99.90
19968;DHT22;10145;49.152;9.282;2023-02-27T08:47:23;0.50;99.90
19968;DHT22;10145;49.152;9.282;2023-02-27T08:49:49;0.50;99.90
19968;DHT22;10145;49.152;9.282;2023-02-27T08:52:14;0.60;99.90
19968;DHT22;10145;49.152;9.282;2023-02-27T08:54:40;0.70;99.90
19968;DHT22;10145;49.152;9.282;2023-02-27T08:57:06;0.80;99.90
19968;DHT22;10145;49.152;9.282;2023-02-27T08:59:31;0.90;99.90
19968;DHT22;10145;49.152;9.282;2023-02-27T09:01:57;0.90;99.90
19968;DHT22;10145;49.152;9.282;2023-02-27T09:04:23;0.90;99.90
19968;DHT22;10145;49.152;9.282;2023-02-27T09:06:48;0.90;99.90
19968;DHT22;10145;49.152;9.282;2023-02-27T09:09:14;0.90;99.90
19968;DHT22;10145;49.152;9.282;2023-02-27T09:11:39;1.00;99.90
19968;DHT22;10145;49.152;9.282;2023-02-27T09:14:05;1.20;99.90
19968;DHT22;10145;49.152;9.282;2023-02-27T09:16:31;1.30;99.90
19968;DHT22;10145;49.152;9.282;2023-02-27T09:18:57;1.40;99.90
19968;DHT22;10145;49.152;9.282;2023-02-27T09:21:23;1.40;99.90
19968;DHT22;10145;49.152;9.282;2023-02-27T09:23:50;1.30;99.90
19968;DHT22;10145;49.152;9.282;2023-02-27T09:26:16;1.50;99.90
19968;DHT22;10145;49.152;9.282;2023-02-27T09:28:41;1.50;99.90
19968;DHT22;10145;49.152;9.282;2023-02-27T09:31:08;1.60;99.90
19968;DHT22;10145;49.152;9.282;2023-02-27T09:33:35;1.60;99.90
19968;DHT22;10145;49.152;9.282;2023-02-27T09:36:02;1.70;99.90
19968;DHT22;10145;49.152;9.282;2023-02-27T09:38:27;1.70;99.90
19968;DHT22;10145;49.152;9.282;2023-02-27T09:40:55;1.70;99.90
19968;DHT22;10145;49.152;9.282;2023-02-27T09:45:52;1.90;99.90
19968;DHT22;10145;49.152;9.282;2023-02-27T09:50:51;1.90;99.90
19968;DHT22;10145;49.152;9.282;2023-02-27T09:53:34;1.90;99.90
19968;DHT22;10145;49.152;9.282;2023-02-27T09:59:04;2.20;99.90
19968;DHT22;10145;49.152;9.282;2023-02-27T10:01:41;2.30;99.90
19968;DHT22;10145;49.152;9.282;2023-02-27T10:09:43;2.70;99.90
19968;DHT22;10145;49.152;9.282;2023-02-27T10:17:47;3.20;99.90
19968;DHT22;10145;49.152;9.282;2023-02-27T10:20:24;3.20;99.70
19968;DHT22;10145;49.152;9.282;2023-02-27T10:22:51;3.10;99.30
19968;DHT22;10145;49.152;9.282;2023-02-27T10:25:18;3.10;98.30
19968;DHT22;10145;49.152;9.282;2023-02-27T10:27:49;3.10;98.50
19968;DHT22;10145;49.152;9.282;2023-02-27T10:30:26;3.10;97.80
19968;DHT22;10145;49.152;9.282;2023-02-27T10:35:39;3.20;98.60
19968;DHT22;10145;49.152;9.282;2023-02-27T10:38:13;3.30;98.50
19968;DHT22;10145;49.152;9.282;2023-02-27T10:40:41;3.70;98.50
19968;DHT22;10145;49.152;9.282;2023-02-27T10:43:07;3.70;98.20
19968;DHT22;10145;49.152;9.282;2023-02-27T10:45:33;3.80;97.40
19968;DHT22;10145;49.152;9.282;2023-02-27T10:48:01;3.70;97.30
19968;DHT22;10145;49.152;9.282;2023-02-27T10:50:31;3.60;97.40
19968;DHT22;10145;49.152;9.282;2023-02-27T10:52:59;3.50;96.90
19968;DHT22;10145;49.152;9.282;2023-02-27T10:55:31;3.70;96.60
19968;DHT22;10145;49.152;9.282;2023-02-27T10:57:58;3.80;96.80
19968;DHT22;10145;49.152;9.282;2023-02-27T11:03:23;3.90;97.10
19968;DHT22;10145;49.152;9.282;2023-02-27T11:05:58;3.60;96.30
19968;DHT22;10145;49.152;9.282;2023-02-27T11:08:27;3.60;96.30
19968;DHT22;10145;49.152;9.282;2023-02-27T11:13:22;3.10;96.50
19968;DHT22;10145;49.152;9.282;2023-02-27T11:16:14;3.10;96.50
19968;DHT22;10145;49.152;9.282;2023-02-27T11:18:42;3.10;96.70
19968;DHT22;10145;49.152;9.282;2023-02-27T11:21:24;3.10;96.30
19968;DHT22;10145;49.152;9.282;2023-02-27T11:23:56;3.30;96.60
19968;DHT22;10145;49.152;9.282;2023-02-27T11:27:15;3.60;96.30
19968;DHT22;10145;49.152;9.282;2023-02-27T11:29:18;3.90;95.30
19968;DHT22;10145;49.152;9.282;2023-02-27T11:31:59;4.00;95.30
19968;DHT22;10145;49.152;9.282;2023-02-27T11:34:35;4.20;95.60
19968;DHT22;10145;49.152;9.282;2023-02-27T11:42:36;4.60;94.90
19968;DHT22;10145;49.152;9.282;2023-02-27T11:45:20;4.50;94.30
19968;DHT22;10145;49.152;9.282;2023-02-27T11:47:49;4.60;94.80
19968;DHT22;10145;49.152;9.282;2023-02-27T11:52:52;4.40;94.30
19968;DHT22;10145;49.152;9.282;2023-02-27T11:55:24;4.40;94.50
19968;DHT22;10145;49.152;9.282;2023-02-27T11:57:58;4.00;94.10
19968;DHT22;10145;49.152;9.282;2023-02-27T12:00:30;3.80;94.10
19968;DHT22;10145;49.152;9.282;2023-02-27T12:03:19;3.80;94.80
19968;DHT22;10145;49.152;9.282;2023-02-27T12:05:48;3.80;94.60
19968;DHT22;10145;49.152;9.282;2023-02-27T12:08:19;4.00;94.40
19968;DHT22;10145;49.152;9.282;2023-02-27T12:10:49;4.00;93.90
19968;DHT22;10145;49.152;9.282;2023-02-27T12:13:21;3.90;93.70
19968;DHT22;10145;49.152;9.282;2023-02-27T12:16:00;4.00;93.30
19968;DHT22;10145;49.152;9.282;2023-02-27T12:21:12;4.20;93.00
19968;DHT22;10145;49.152;9.282;2023-02-27T12:34:48;4.70;92.70
19968;DHT22;10145;49.152;9.282;2023-02-27T12:37:25;4.90;92.90
19968;DHT22;10145;49.152;9.282;2023-02-27T12:39:53;4.90;92.50
19968;DHT22;10145;49.152;9.282;2023-02-27T12:50:20;5.30;91.20
19968;DHT22;10145;49.152;9.282;2023-02-27T12:53:08;5.00;90.90
19968;DHT22;10145;49.152;9.282;2023-02-27T12:55:47;4.60;91.20
19968;DHT22;10145;49.152;9.282;2023-02-27T13:03:56;5.10;92.20
19968;DHT22;10145;49.152;9.282;2023-02-27T13:06:46;5.40;92.30
19968;DHT22;10145;49.152;9.282;2023-02-27T13:09:29;5.20;92.30
19968;DHT22;10145;49.152;9.282;2023-02-27T13:19:58;4.60;92.70
19968;DHT22;10145;49.152;9.282;2023-02-27T13:22:39;5.20;91.20
19968;DHT22;10145;49.152;9.282;2023-02-27T13:25:13;5.30;90.90
19968;DHT22;10145;49.152;9.282;2023-02-27T13:27:51;5.40;90.40
19968;DHT22;10145;49.152;9.282;2023-02-27T13:30:24;5.50;88.80
19968;DHT22;10145;49.152;9.282;2023-02-27T13:35:46;6.10;87.50
19968;DHT22;10145;49.152;9.282;2023-02-27T13:40:56;6.30;87.90
19968;DHT22;10145;49.152;9.282;2023-02-27T13:43:28;6.10;86.30
19968;DHT22;10145;49.152;9.282;2023-02-27T13:46:19;5.70;86.30
19968;DHT22;10145;49.152;9.282;2023-02-27T13:48:43;5.60;88.20
19968;DHT22;10145;49.152;9.282;2023-02-27T13:56:42;4.80;88.60
19968;DHT22;10145;49.152;9.282;2023-02-27T13:59:31;4.50;88.90
19968;DHT22;10145;49.152;9.282;2023-02-27T14:04:50;4.60;90.70
19968;DHT22;10145;49.152;9.282;2023-02-27T14:07:23;4.90;89.20
19968;DHT22;10145;49.152;9.282;2023-02-27T14:09:52;5.00;88.60
19968;DHT22;10145;49.152;9.282;2023-02-27T14:14:59;5.00;89.40
19968;DHT22;10145;49.152;9.282;2023-02-27T14:20:14;5.10;88.60
19968;DHT22;10145;49.152;9.282;2023-02-27T14:25:53;5.60;86.50
19968;DHT22;10145;49.152;9.282;2023-02-27T14:28:33;5.80;87.80
19968;DHT22;10145;49.152;9.282;2023-02-27T14:31:18;6.00;86.20
19968;DHT22;10145;49.152;9.282;2023-02-27T14:33:47;5.90;85.60
19968;DHT22;10145;49.152;9.282;2023-02-27T14:36:19;5.50;86.40
19968;DHT22;10145;49.152;9.282;2023-02-27T14:38:45;5.30;87.40
19968;DHT22;10145;49.152;9.282;2023-02-27T14:41:21;5.00;87.10
19968;DHT22;10145;49.152;9.282;2023-02-27T14:43:53;4.80;87.70
19968;DHT22;10145;49.152;9.282;2023-02-27T14:46:36;4.60;87.20
19968;DHT22;10145;49.152;9.282;2023-02-27T14:49:27;4.20;88.00
19968;DHT22;10145;49.152;9.282;2023-02-27T14:51:53;4.50;88.80
19968;DHT22;10145;49.152;9.282;2023-02-27T14:54:24;5.00;88.90
19968;DHT22;10145;49.152;9.282;2023-02-27T14:56:56;5.20;88.60
19968;DHT22;10145;49.152;9.282;2023-02-27T14:59:25;5.30;87.30
19968;DHT22;10145;49.152;9.282;2023-02-27T15:01:52;5.30;87.40
19968;DHT22;10145;49.152;9.282;2023-02-27T15:04:22;5.40;86.50
19968;DHT22;10145;49.152;9.282;2023-02-27T15:06:49;5.60;86.30
19968;DHT22;10145;49.152;9.282;2023-02-27T15:09:24;5.90;84.60
19968;DHT22;10145;49.152;9.282;2023-02-27T15:11:53;5.90;83.80
19968;DHT22;10145;49.152;9.282;2023-02-27T15:14:24;5.70;84.20
19968;DHT22;10145;49.152;9.282;2023-02-27T15:16:55;5.50;86.00
19968;DHT22;10145;49.152;9.282;2023-02-27T15:19:24;5.00;85.20
19968;DHT22;10145;49.152;9.282;2023-02-27T15:21:55;4.80;87.20
19968;DHT22;10145;49.152;9.282;2023-02-27T15:24:25;4.70;88.60
19968;DHT22;10145;49.152;9.282;2023-02-27T15:27:00;4.80;88.00
19968;DHT22;10145;49.152;9.282;2023-02-27T15:29:38;4.90;88.60
19968;DHT22;10145;49.152;9.282;2023-02-27T15:32:05;4.50;87.70
19968;DHT22;10145;49.152;9.282;2023-02-27T15:34:33;4.30;88.50
19968;DHT22;10145;49.152;9.282;2023-02-27T15:36:58;4.30;88.50
19968;DHT22;10145;49.152;9.282;2023-02-27T15:39:27;4.40;88.50
19968;DHT22;10145;49.152;9.282;2023-02-27T15:41:56;4.20;87.20
19968;DHT22;10145;49.152;9.282;2023-02-27T15:44:26;4.10;86.90
19968;DHT22;10145;49.152;9.282;2023-02-27T15:46:55;4.00;86.90
19968;DHT22;10145;49.152;9.282;2023-02-27T15:49:23;4.10;87.30
19968;DHT22;10145;49.152;9.282;2023-02-27T15:52:00;4.20;89.30
19968;DHT22;10145;49.152;9.282;2023-02-27T15:54:32;4.20;88.40
19968;DHT22;10145;49.152;9.282;2023-02-27T15:56:58;4.30;88.20
19968;DHT22;10145;49.152;9.282;2023-02-27T15:59:24;4.30;89.00
19968;DHT22;10145;49.152;9.282;2023-02-27T16:01:51;4.30;89.40
19968;DHT22;10145;49.152;9.282;2023-02-27T16:04:24;4.20;88.80
19968;DHT22;10145;49.152;9.282;2023-02-27T16:07:02;4.10;89.60
19968;DHT22;10145;49.152;9.282;2023-02-27T16:09:32;4.10;90.10
19968;DHT22;10145;49.152;9.282;2023-02-27T16:12:31;4.00;89.60
19968;DHT22;10145;49.152;9.282;2023-02-27T16:20:45;3.80;88.70
19968;DHT22;10145;49.152;9.282;2023-02-27T16:33:47;2.80;91.00
19968;DHT22;10145;49.152;9.282;2023-02-27T16:36:24;2.70;90.90
19968;DHT22;10145;49.152;9.282;2023-02-27T16:38:50;2.60;91.10
19968;DHT22;10145;49.152;9.282;2023-02-27T16:41:17;2.50;91.70
19968;DHT22;10145;49.152;9.282;2023-02-27T16:43:45;2.40;91.90
19968;DHT22;10145;49.152;9.282;2023-02-27T16:46:12;2.50;91.80
19968;DHT22;10145;49.152;9.282;2023-02-27T16:48:47;2.50;92.70
19968;DHT22;10145;49.152;9.282;2023-02-27T16:51:17;2.50;91.90
19968;DHT22;10145;49.152;9.282;2023-02-27T16:53:45;2.50;92.10
19968;DHT22;10145;49.152;9.282;2023-02-27T16:56:11;2.40;92.50
19968;DHT22;10145;49.152;9.282;2023-02-27T16:58:37;2.40;92.40
19968;DHT22;10145;49.152;9.282;2023-02-27T17:01:03;2.40;92.50
19968;DHT22;10145;49.152;9.282;2023-02-27T17:03:29;2.40;92.90
19968;DHT22;10145;49.152;9.282;2023-02-27T17:05:54;2.40;93.50
19968;DHT22;10145;49.152;9.282;2023-02-27T17:08:22;2.40;92.80
19968;DHT22;10145;49.152;9.282;2023-02-27T17:10:48;2.40;93.10
19968;DHT22;10145;49.152;9.282;2023-02-27T17:13:13;2.40;93.00
19968;DHT22;10145;49.152;9.282;2023-02-27T17:15:39;2.30;93.50
19968;DHT22;10145;49.152;9.282;2023-02-27T17:18:04;2.30;93.50
19968;DHT22;10145;49.152;9.282;2023-02-27T17:20:30;2.30;93.40
19968;DHT22;10145;49.152;9.282;2023-02-27T17:22:55;2.30;93.60
19968;DHT22;10145;49.152;9.282;2023-02-27T17:25:22;2.30;93.30
19968;DHT22;10145;49.152;9.282;2023-02-27T17:27:47;2.30;93.00
19968;DHT22;10145;49.152;9.282;2023-02-27T17:30:13;2.30;93.80
19968;DHT22;10145;49.152;9.282;2023-02-27T17:32:39;2.30;93.50
19968;DHT22;10145;49.152;9.282;2023-02-27T17:35:05;2.30;93.00
19968;DHT22;10145;49.152;9.282;2023-02-27T17:37:30;2.30;93.20
19968;DHT22;10145;49.152;9.282;2023-02-27T17:39:56;2.40;92.70
19968;DHT22;10145;49.152;9.282;2023-02-27T17:42:22;2.30;92.80
19968;DHT22;10145;49.152;9.282;2023-02-27T17:44:50;2.30;92.90
19968;DHT22;10145;49.152;9.282;2023-02-27T17:47:16;2.30;93.20
19968;DHT22;10145;49.152;9.282;2023-02-27T17:49:41;2.30;93.10
19968;DHT22;10145;49.152;9.282;2023-02-27T17:52:07;2.30;93.10
19968;DHT22;10145;49.152;9.282;2023-02-27T17:54:34;2.30;92.90
19968;DHT22;10145;49.152;9.282;2023-02-27T17:57:00;2.30;92.90
19968;DHT22;10145;49.152;9.282;2023-02-27T17:59:26;2.30;93.00
19968;DHT22;10145;49.152;9.282;2023-02-27T18:01:51;2.30;94.80
19968;DHT22;10145;49.152;9.282;2023-02-27T18:04:17;2.30;93.60
19968;DHT22;10145;49.152;9.282;2023-02-27T18:06:43;2.30;93.60
19968;DHT22;10145;49.152;9.282;2023-02-27T18:09:09;2.30;94.10
19968;DHT22;10145;49.152;9.282;2023-02-27T18:11:35;2.30;93.90
19968;DHT22;10145;49.152;9.282;2023-02-27T18:14:04;2.30;93.80
19968;DHT22;10145;49.152;9.282;2023-02-27T18:16:30;2.60;94.00
19968;DHT22;10145;49.152;9.282;2023-02-27T18:18:55;2.30;94.00
19968;DHT22;10145;49.152;9.282;2023-02-27T18:21:22;2.20;94.40
19968;DHT22;10145;49.152;9.282;2023-02-27T18:23:49;2.20;94.60
19968;DHT22;10145;49.152;9.282;2023-02-27T18:26:19;2.10;94.70
19968;DHT22;10145;49.152;9.282;2023-02-27T18:28:44;2.10;94.60
19968;DHT22;10145;49.152;9.282;2023-02-27T18:31:21;2.00;95.00
19968;DHT22;10145;49.152;9.282;2023-02-27T18:33:47;1.90;95.10
19968;DHT22;10145;49.152;9.282;2023-02-27T18:36:12;1.80;95.60
19968;DHT22;10145;49.152;9.282;2023-02-27T18:38:38;1.60;95.80
19968;DHT22;10145;49.152;9.282;2023-02-27T18:41:06;1.60;95.90
19968;DHT22;10145;49.152;9.282;2023-02-27T18:43:35;1.50;95.90
19968;DHT22;10145;49.152;9.282;2023-02-27T18:46:03;1.30;96.20
19968;DHT22;10145;49.152;9.282;2023-02-27T18:48:29;1.20;96.30
19968;DHT22;10145;49.152;9.282;2023-02-27T18:50:59;1.10;96.80
19968;DHT22;10145;49.152;9.282;2023-02-27T18:53:25;0.90;97.20